Telemetry
Timestamp Node Air Util TX Channel Util Battery Uptime Voltage Current Barometric Pressure Relative Humidity Temperature Gas Resistance
2026-08-31 04:20:32 DJMH 0.43% 4.5% 83% 16667166 4.01 V
2026-08-31 04:20:32 DJMH 0.43% 4.5% 83% 16667166 4.01 V
2026-08-31 04:16:23 RF01 0.22% 2.1% 101% 1167785 4.23 V
2026-08-31 04:16:23 RF01 0.22% 2.1% 101% 1167785 4.23 V
2026-08-31 04:16:23 RF01 0.22% 2.1% 101% 1167785 4.23 V
2026-08-31 04:16:15 RF01 0.22% 2.1% 101% 1167785 4.23 V
2026-08-31 04:16:15 RF01 0.22% 2.1% 101% 1167785 4.23 V
2026-08-31 04:16:15 RF01 0.22% 2.1% 101% 1167785 4.23 V
2026-08-31 04:15:59 ah01 0.93% 3.9% 96% 5939276 4.15 V
2026-08-31 04:15:57 ah01 0.93% 3.9% 96% 5939276 4.15 V
2026-08-31 04:15:56 ah01 0.93% 3.9% 96% 5939276 4.15 V
2026-08-31 04:15:53 ah01 0.93% 3.9% 96% 5939276 4.15 V
2026-08-31 04:14:54 J8ke 1.06% 2.8% 101% 44348 5.08 V
2026-08-31 04:14:54 J8ke 1.06% 2.8% 101% 44348 5.08 V
2026-08-31 04:14:54 J8ke 1.06% 2.8% 101% 44348 5.08 V
2026-08-31 04:14:28 7274 1.08% 7.9% 100% 2156074 4.11 V
2026-08-31 04:14:28 7274 1.08% 7.9% 100% 2156074 4.11 V
2026-08-31 04:14:28 7274 1.08% 7.9% 100% 2156074 4.11 V
2026-08-31 04:14:26 IIXF 1.54% 9.6% 101% 914188 4.38 V
2026-08-31 04:14:26 IIXF 1.54% 9.6% 101% 914188 4.38 V
2026-08-31 04:13:12 IIXF 857.27 hPa 48.23% 11.92°C 150.51 Ohm
2026-08-31 04:13:12 IIXF 857.27 hPa 48.23% 11.92°C 150.51 Ohm
2026-08-31 04:09:17 EEPr 0.62% 0.0% 101% 2050861 4.34 V
2026-08-31 04:09:17 EEPr 0.62% 0.0% 101% 2050861 4.34 V
2026-08-31 04:08:52 TG08 20.04°C
2026-08-31 04:08:52 TG08 2.51% 2.6% 76% 145939 3.93 V
2026-08-31 04:08:52 TG08 2.51% 2.6% 76% 145939 3.93 V
2026-08-31 04:07:58 ah02 71.98% 13.51°C
2026-08-31 04:07:57 ah02 71.98% 13.51°C
2026-08-31 04:07:56 ah02 71.98% 13.51°C
2026-08-31 04:07:36 ah02 0.04% 15.6% 60% 61 3.8 V
2026-08-31 04:07:34 ah02 0.04% 15.6% 60% 61 3.8 V
2026-08-31 04:07:31 ah02 0.04% 15.6% 60% 61 3.8 V
2026-08-31 04:07:31 ah02 0.04% 15.6% 60% 61 3.8 V
2026-08-31 04:07:14 Rhee 0.41% 6.9% 97% 28690 4.12 V
2026-08-31 04:07:12 Rhee 0.41% 6.9% 97% 28690 4.12 V
2026-08-31 04:07:11 Rhee 0.41% 6.9% 97% 28690 4.12 V
2026-08-31 04:02:04 dc64 0.58% 1.1% 93% 1057932 4.1 V
2026-08-31 04:02:03 dc64 0.58% 1.1% 93% 1057932 4.1 V
2026-08-31 04:02:03 dc64 0.58% 1.1% 93% 1057932 4.1 V
2026-08-31 04:01:38 LMGB 0.33% 1.1% 101% 764846 -0.0 V
2026-08-31 04:01:37 LMGB 0.33% 1.1% 101% 764846 -0.0 V
2026-08-31 04:01:07 ah03 696.34 hPa 69.5% 27.0°C
2026-08-31 04:01:07 ah03 696.34 hPa 69.5% 27.0°C
2026-08-31 04:01:06 ah03 696.34 hPa 69.5% 27.0°C
2026-08-31 04:01:02 ah03 696.34 hPa 69.5% 27.0°C
2026-08-31 04:00:19 PMT2 1.12% 7.1% 101% 1546465 4.2 V
2026-08-31 04:00:18 PMT2 1.12% 7.1% 101% 1546465 4.2 V
2026-08-31 04:00:18 PMT2 1.12% 7.1% 101% 1546465 4.2 V
2026-08-31 04:00:18 PMT2 1.12% 7.1% 101% 1546465 4.2 V
2026-08-31 04:00:11 PMT2 1.12% 7.1% 101% 1546465 4.2 V
2026-08-31 04:00:11 PMT2 1.12% 7.1% 101% 1546465 4.2 V
2026-08-31 04:00:07 RF03 0.05% 2.1% 99% 936429 4.19 V
2026-08-31 04:00:07 RF03 0.05% 2.1% 99% 936429 4.19 V
2026-08-31 04:00:07 RF03 0.05% 2.1% 99% 936429 4.19 V
2026-08-31 04:00:02 RF03 0.05% 2.1% 99% 936429 4.19 V
2026-08-31 04:00:02 RF03 0.05% 2.1% 99% 936429 4.19 V
2026-08-31 04:00:02 RF03 0.05% 2.1% 99% 936429 4.19 V
2026-08-31 03:58:56 LRX1 1013.63 hPa 38.93% 21.06°C
2026-08-31 03:58:56 LRX1 1013.63 hPa 38.93% 21.06°C
2026-08-31 03:58:49 LRX1 0.68% 0.0% 101% 7940163 4.84 V
2026-08-31 03:58:49 LRX1 0.68% 0.0% 101% 7940163 4.84 V
2026-08-31 03:58:48 LRX1 0.68% 0.0% 101% 7940163 4.84 V
2026-08-31 03:58:48 LRX1 0.68% 0.0% 101% 7940163 4.84 V
2026-08-31 03:58:46 LRX1 0.68% 0.0% 101% 7940163 4.84 V
2026-08-31 03:58:45 LRX1 1013.63 hPa 38.93% 21.06°C
2026-08-31 03:58:45 LRX1 1013.63 hPa 38.93% 21.06°C
2026-08-31 03:58:44 EN05 0.46% 3.1% 77% 225133 3.96 V
2026-08-31 03:58:43 EN05 0.46% 3.1% 77% 225133 3.96 V
2026-08-31 03:58:41 LRX1 1013.63 hPa 38.93% 21.06°C
2026-08-31 03:58:41 LRX1 1013.63 hPa 38.93% 21.06°C
2026-08-31 03:58:29 EN05 0.46% 3.1% 77% 225133 3.96 V
2026-08-31 03:57:52 EEPa 0.39% 1.0% 100% 6577363 4.14 V
2026-08-31 03:57:52 EEPa 0.39% 1.0% 100% 6577363 4.14 V
2026-08-31 03:57:36 ah03
2026-08-31 03:57:36 ah03
2026-08-31 03:57:33 ah03
2026-08-31 03:57:32 ah03
2026-08-31 03:57:29 ah03
2026-08-31 03:57:27 ah03 0.88% 4.8% 70% 3645138 3.89 V
2026-08-31 03:57:25 ah03 0.88% 4.8% 70% 3645138 3.89 V
2026-08-31 03:56:27 PTRH 0.54% 3.9% 56% 1178142 3.77 V
2026-08-31 03:56:27 PTRH 0.54% 3.9% 56% 1178142 3.77 V
2026-08-31 03:55:42 LML2 0.31% 1.1% 100% 289514 4.14 V
2026-08-31 03:55:41 LML2 0.31% 1.1% 100% 289514 4.14 V
2026-08-31 03:55:09 EN11 0.06% 7.0% 101% 24382 4.13 V
2026-08-31 03:55:09 EN11 0.06% 7.0% 101% 24382 4.13 V
2026-08-31 03:54:52 EN11 0.06% 7.0% 101% 24382 4.13 V
2026-08-31 03:54:52 EN11 0.06% 7.0% 101% 24382 4.13 V
2026-08-31 03:54:17 PMT2 20.44°C
2026-08-31 03:54:17 PMT2 20.44°C
2026-08-31 03:54:11 PMT2 20.44°C
2026-08-31 03:54:11 PMT2 20.44°C
2026-08-31 03:53:26 IIXF 1.6% 6.7% 101% 912928 4.38 V
2026-08-31 03:53:26 IIXF 1.6% 6.7% 101% 912928 4.38 V
2026-08-31 03:52:12 IIXF 857.21 hPa 49.08% 11.58°C 151.46 Ohm
2026-08-31 03:52:12 TTBM 1.56% 0.9% 73% 63266 3.92 V
2026-08-31 03:52:12 IIXF 857.21 hPa 49.08% 11.58°C 151.46 Ohm
2026-08-31 03:52:11 TTBM 1.56% 0.9% 73% 63266 3.92 V
2026-08-31 03:51:50 EEPa 853.52 hPa 46.09% 19.28°C
2026-08-31 03:51:50 EEPa 853.52 hPa 46.09% 19.28°C
2026-08-31 03:51:26 J8ke
2026-08-31 03:51:26 J8ke
2026-08-31 03:51:08 J8ke 0.38 V
2026-08-31 03:51:07 J8ke 0.38 V
2026-08-31 03:51:07 J8ke 0.38 V
2026-08-31 03:50:45 J8ke 0.98% 12.1% 101% 42908 5.08 V
2026-08-31 03:50:43 J8ke 0.98% 12.1% 101% 42908 5.08 V
2026-08-31 03:50:42 J8ke 0.98% 12.1% 101% 42908 5.08 V
2026-08-31 03:50:37 DJMH 0.49% 0.0% 83% 16665366 4.01 V
2026-08-31 03:50:36 DJMH 0.49% 0.0% 83% 16665366 4.01 V
2026-08-31 03:50:33 DJMH 0.49% 0.0% 83% 16665366 4.01 V
2026-08-31 03:50:33 DJMH 0.49% 0.0% 83% 16665366 4.01 V
2026-08-31 03:45:19 EN01 0.85% 0.0% 100% 387204 4.2 V
2026-08-31 03:45:19 EN01 0.85% 0.0% 100% 387204 4.2 V
2026-08-31 03:43:13 Rhee 0.42% 2.1% 97% 27250 4.13 V
2026-08-31 03:43:12 Rhee 0.42% 2.1% 97% 27250 4.13 V
2026-08-31 03:43:09 Rhee 0.42% 2.1% 97% 27250 4.13 V
2026-08-31 03:43:09 Rhee 0.42% 2.1% 97% 27250 4.13 V
2026-08-31 03:39:45 EN06 0.02% 10.7% 85% 126516 4.02 V
2026-08-31 03:39:44 EN06 0.02% 10.7% 85% 126516 4.02 V
2026-08-31 03:39:24 EN06 0.02% 10.7% 85% 126516 4.02 V
2026-08-31 03:39:11 EEPr 0.68% 0.0% 101% 2049054 4.34 V
2026-08-31 03:39:11 EEPr 0.68% 0.0% 101% 2049054 4.34 V
2026-08-31 03:38:51 TG08 20.15°C
2026-08-31 03:38:51 TG08 2.42% 1.7% 77% 144138 3.94 V
2026-08-31 03:38:50 TG08 2.42% 1.7% 77% 144138 3.94 V
2026-08-31 03:38:27 7274 1.05% 4.4% 100% 2153913 4.11 V
2026-08-31 03:38:27 7274 1.05% 4.4% 100% 2153913 4.11 V
2026-08-31 03:38:27 7274 1.05% 4.4% 100% 2153913 4.11 V
2026-08-31 03:36:52 BB04 2.09% 4.5% 101% 627583 -0.0 V
2026-08-31 03:36:50 BB04 2.09% 4.5% 101% 627583 -0.0 V
2026-08-31 03:36:50 BB04 2.09% 4.5% 101% 627583 -0.0 V
2026-08-31 03:34:52 LRX1 0.82% 0.0% 101% 7938722 4.85 V
2026-08-31 03:34:47 LRX1 0.82% 0.0% 101% 7938722 4.85 V
2026-08-31 03:34:46 LRX1 1013.85 hPa 38.68% 21.12°C
2026-08-31 03:34:46 LRX1 1013.85 hPa 38.68% 21.12°C
2026-08-31 03:34:46 LRX1 1013.85 hPa 38.68% 21.12°C
2026-08-31 03:34:42 LRX1 0.82% 0.0% 101% 7938722 4.85 V
2026-08-31 03:34:41 LRX1 1013.85 hPa 38.68% 21.12°C
2026-08-31 03:34:41 LRX1 1013.85 hPa 38.68% 21.12°C
2026-08-31 03:32:26 IIXF 1.58% 5.7% 101% 911668 4.39 V
2026-08-31 03:32:26 IIXF 1.58% 5.7% 101% 911668 4.39 V
2026-08-31 03:31:50 MJTM 1.08% 0.0% 99% 4203418 4.18 V
2026-08-31 03:31:48 MJTM 1.08% 0.0% 99% 4203418 4.18 V
2026-08-31 03:31:47 MJTM 1.08% 0.0% 99% 4203418 4.18 V
2026-08-31 03:31:47 MJTM 1.08% 0.0% 99% 4203418 4.18 V
2026-08-31 03:31:12 IIXF 857.12 hPa 47.33% 12.18°C 154.24 Ohm
2026-08-31 03:31:12 IIXF 857.12 hPa 47.33% 12.18°C 154.24 Ohm
2026-08-31 03:30:24 ah03 696.34 hPa 69.85% 27.0°C
2026-08-31 03:30:23 ah03 696.34 hPa 69.85% 27.0°C
2026-08-31 03:30:20 ah03 696.34 hPa 69.85% 27.0°C
2026-08-31 03:30:20 ah03 696.34 hPa 69.85% 27.0°C
2026-08-31 03:30:15 ah03 696.34 hPa 69.85% 27.0°C
2026-08-31 03:30:11 PMT2 1.17% 5.3% 101% 1544665 4.2 V
2026-08-31 03:30:10 PMT2 1.17% 5.3% 101% 1544665 4.2 V
2026-08-31 03:30:08 RF03 0.04% 0.0% 99% 934629 4.19 V
2026-08-31 03:30:08 RF03 0.04% 0.0% 99% 934629 4.19 V
2026-08-31 03:30:05 RF03 0.04% 0.0% 99% 934629 4.19 V
2026-08-31 03:30:04 RF03 0.04% 0.0% 99% 934629 4.19 V
2026-08-31 03:30:01 RF03 0.04% 0.0% 99% 934629 4.19 V
2026-08-31 03:30:01 RF03 0.04% 0.0% 99% 934629 4.19 V
2026-08-31 03:30:01 RF03 0.04% 0.0% 99% 934629 4.19 V
2026-08-31 03:29:44 3bb8 1.42% 2.2% 101% 2122669 5.05 V
2026-08-31 03:29:44 3bb8 1.42% 2.2% 101% 2122669 5.05 V
2026-08-31 03:28:37 EN05 0.5% 0.0% 78% 223332 3.97 V
2026-08-31 03:28:31 EN05 0.5% 0.0% 78% 223332 3.97 V
2026-08-31 03:28:31 EN05 0.5% 0.0% 78% 223332 3.97 V
2026-08-31 03:28:07 Jim1 0.99% 7.1% 84% 17019350 4.02 V
2026-08-31 03:28:06 Jim1 0.99% 7.1% 84% 17019350 4.02 V
2026-08-31 03:28:06 Jim1 0.99% 7.1% 84% 17019350 4.02 V
2026-08-31 03:28:05 Jim1 0.99% 7.1% 84% 17019350 4.02 V
2026-08-31 03:26:46 J8ke 0.96% 4.1% 101% 41468 5.08 V
2026-08-31 03:26:46 J8ke 0.96% 4.1% 101% 41468 5.08 V
2026-08-31 03:26:46 J8ke 0.96% 4.1% 101% 41468 5.08 V
2026-08-31 03:26:36 ah03
2026-08-31 03:26:36 ah03
2026-08-31 03:26:28 ah03 0.88% 2.0% 70% 3643269 3.9 V
2026-08-31 03:26:28 ah03
2026-08-31 03:26:27 ah03
2026-08-31 03:26:26 ah03 0.88% 2.0% 70% 3643269 3.9 V
2026-08-31 03:26:24 ah03 0.88% 2.0% 70% 3643269 3.9 V
2026-08-31 03:25:36 LMGB 0.34% 0.5% 101% 762685 -0.0 V
2026-08-31 03:25:36 LMGB 0.34% 0.5% 101% 762685 -0.0 V
2026-08-31 03:24:10 PMT2 20.54°C
2026-08-31 03:24:10 PMT2 20.54°C
2026-08-31 03:20:48 MJTH 1.13% 4.3% 78% 14643 3.97 V
2026-08-31 03:20:47 MJTH 1.13% 4.3% 78% 14643 3.97 V
2026-08-31 03:20:46 MJTH 1.13% 4.3% 78% 14643 3.97 V
2026-08-31 03:20:27 PTRH 0.56% 1.9% 58% 1175982 3.79 V
2026-08-31 03:20:26 PTRH 0.56% 1.9% 58% 1175982 3.79 V
2026-08-31 03:19:42 LML2 0.29% 2.4% 100% 287354 4.14 V
2026-08-31 03:19:41 LML2 0.29% 2.4% 100% 287354 4.14 V
2026-08-31 03:19:24 Rhee 0.32% 4.7% 97% 25810 4.13 V
2026-08-31 03:19:22 Rhee 0.32% 4.7% 97% 25810 4.13 V
2026-08-31 03:19:21 Rhee 0.32% 4.7% 97% 25810 4.13 V
2026-08-31 03:16:58 htec 2.85% 6.3% 101% 16691 4.28 V
2026-08-31 03:16:58 htec 2.85% 6.3% 101% 16691 4.28 V
2026-08-31 03:16:58 htec 2.85% 6.3% 101% 16691 4.28 V
2026-08-31 03:16:55 htec 2.85% 6.3% 101% 16691 4.28 V
2026-08-31 03:16:55 htec 2.85% 6.3% 101% 16691 4.28 V
2026-08-31 03:16:20 RF01 0.21% 0.0% 101% 1164185 4.26 V
2026-08-31 03:16:20 RF01 0.21% 0.0% 101% 1164185 4.26 V
2026-08-31 03:16:19 RF01 0.21% 0.0% 101% 1164185 4.26 V
2026-08-31 03:16:15 RF01 0.21% 0.0% 101% 1164185 4.26 V
2026-08-31 03:16:15 RF01 0.21% 0.0% 101% 1164185 4.26 V
2026-08-31 03:16:15 RF01 0.21% 0.0% 101% 1164185 4.26 V
2026-08-31 03:14:26 IIXF 1.61% 8.5% 101% 910588 4.39 V
2026-08-31 03:14:26 IIXF 1.61% 8.5% 101% 910588 4.39 V
2026-08-31 03:13:12 IIXF 857.12 hPa 46.98% 12.3°C 166.96 Ohm
2026-08-31 03:13:12 IIXF 857.12 hPa 46.98% 12.3°C 166.96 Ohm
2026-08-31 03:12:26 XYZJ 1.14% 2.2% 45% 381133 3.68 V
2026-08-31 03:12:26 XYZJ 1.14% 2.2% 45% 381133 3.68 V
2026-08-31 03:12:23 XYZJ 1.14% 2.2% 45% 381133 3.68 V
2026-08-31 03:12:21 XYZJ 1.14% 2.2% 45% 381133 3.68 V
2026-08-31 03:12:20 XYZJ 1.14% 2.2% 45% 381133 3.68 V
2026-08-31 03:10:48 LRX1 0.98% 2.1% 101% 7937282 4.84 V
2026-08-31 03:10:47 LRX1 0.98% 2.1% 101% 7937282 4.84 V
2026-08-31 03:10:46 LRX1 0.98% 2.1% 101% 7937282 4.84 V
2026-08-31 03:10:42 LRX1 1014.08 hPa 38.66% 21.19°C
2026-08-31 03:10:41 LRX1 0.98% 2.1% 101% 7937282 4.84 V
2026-08-31 03:10:41 LRX1 1014.08 hPa 38.66% 21.19°C
2026-08-31 03:10:40 LRX1 1014.08 hPa 38.66% 21.19°C
2026-08-31 03:09:42 EEPa 853.64 hPa 45.68% 19.43°C
2026-08-31 03:09:41 EEPa 853.64 hPa 45.68% 19.43°C
2026-08-31 03:09:05 EEPr 0.71% 1.9% 101% 2047248 4.34 V
2026-08-31 03:09:04 EEPr 0.71% 1.9% 101% 2047248 4.34 V
2026-08-31 03:08:50 TG08 2.91% 0.0% 78% 142337 3.95 V
2026-08-31 03:08:49 TG08 2.91% 0.0% 78% 142337 3.95 V
2026-08-31 03:08:49 TG08 20.07°C
2026-08-31 03:05:33 ah02 72.67% 13.63°C
2026-08-31 03:05:32 ah02 72.67% 13.63°C
2026-08-31 03:05:28 ah02 72.67% 13.63°C
2026-08-31 03:05:27 ah02 72.67% 13.63°C
2026-08-31 03:05:26 ah02 72.67% 13.63°C
2026-08-31 03:05:04 ah02 0.04% 12.7% 61% 60 3.81 V
2026-08-31 03:05:02 ah02 0.04% 12.7% 61% 60 3.81 V
2026-08-31 03:05:02 ah02 0.04% 12.7% 61% 60 3.81 V
2026-08-31 03:03:11 J8ke 0.38 V
2026-08-31 03:03:10 J8ke 0.38 V
2026-08-31 03:03:10 J8ke 0.38 V
2026-08-31 03:02:48 J8ke 1.1% 10.5% 101% 40028 5.08 V
2026-08-31 03:02:48 J8ke 1.1% 10.5% 101% 40028 5.08 V
2026-08-31 03:02:48 J8ke 1.1% 10.5% 101% 40028 5.08 V
2026-08-31 03:02:27 7274 1.13% 4.4% 100% 2151753 4.11 V
2026-08-31 03:02:27 7274 1.13% 4.4% 100% 2151753 4.11 V
2026-08-31 03:02:27 7274 1.13% 4.4% 100% 2151753 4.11 V
2026-08-31 03:02:12 TTBM 2.21% 1.1% 73% 60265 3.93 V
2026-08-31 03:02:11 TTBM 2.21% 1.1% 73% 60265 3.93 V
2026-08-31 03:01:53 MJTM 1.43% 2.0% 100% 4201618 4.2 V
2026-08-31 03:01:53 MJTM 1.43% 2.0% 100% 4201618 4.2 V
2026-08-31 03:01:48 MJTM 1.43% 2.0% 100% 4201618 4.2 V
2026-08-31 03:01:48 MJTM 1.43% 2.0% 100% 4201618 4.2 V
2026-08-31 03:01:48 MJTM 1.43% 2.0% 100% 4201618 4.2 V
2026-08-31 03:00:14 PMT2 1.29% 2.0% 101% 1542864 4.2 V
2026-08-31 03:00:14 PMT2 1.29% 2.0% 101% 1542864 4.2 V
2026-08-31 03:00:12 PMT2 1.29% 2.0% 101% 1542864 4.2 V
2026-08-31 03:00:10 PMT2 1.29% 2.0% 101% 1542864 4.2 V
2026-08-31 03:00:10 PMT2 1.29% 2.0% 101% 1542864 4.2 V
2026-08-31 03:00:01 RF03 0.06% 1.0% 99% 932828 4.19 V
2026-08-31 03:00:00 RF03 0.06% 1.0% 99% 932828 4.19 V
2026-08-31 03:00:00 RF03 0.06% 1.0% 99% 932828 4.19 V
2026-08-31 02:58:58 ah03 696.34 hPa 70.24% 27.0°C
2026-08-31 02:58:58 ah03 696.34 hPa 70.24% 27.0°C
2026-08-31 02:58:56 ah03 696.34 hPa 70.24% 27.0°C
2026-08-31 02:58:54 ah03 696.34 hPa 70.24% 27.0°C
2026-08-31 02:58:34 EN05 0.55% 2.1% 79% 221532 3.98 V
2026-08-31 02:56:26 IIXF 1.6% 5.2% 101% 909508 4.39 V
2026-08-31 02:56:25 IIXF 1.6% 5.2% 101% 909508 4.39 V
2026-08-31 02:55:58 Rhee 0.3% 6.5% 97% 24370 4.13 V
2026-08-31 02:55:58 5RC 1017.89 hPa 65.44% 18.5°C
2026-08-31 02:55:57 5RC 1017.89 hPa 65.44% 18.5°C
2026-08-31 02:55:56 5RC 1017.89 hPa 65.44% 18.5°C
2026-08-31 02:55:55 Rhee 0.3% 6.5% 97% 24370 4.13 V
2026-08-31 02:55:55 Rhee 0.3% 6.5% 97% 24370 4.13 V
2026-08-31 02:55:53 5RC 4.2% 17.1% 93% 120492 4.1 V
2026-08-31 02:55:53 5RC 4.2% 17.1% 93% 120492 4.1 V
2026-08-31 02:55:46 5RC 4.2% 17.1% 93% 120492 4.1 V
2026-08-31 02:55:41 5RC 1017.89 hPa 65.44% 18.5°C
2026-08-31 02:55:40 5RC 4.2% 17.1% 93% 120492 4.1 V
2026-08-31 02:55:40 5RC 4.2% 17.1% 93% 120492 4.1 V
2026-08-31 02:55:34 ah03
2026-08-31 02:55:34 ah03
2026-08-31 02:55:31 ah03
2026-08-31 02:55:30 ah03 0.88% 10.1% 71% 3641411 3.9 V
2026-08-31 02:55:30 ah03 0.88% 10.1% 71% 3641411 3.9 V
2026-08-31 02:55:28 ah03 0.88% 10.1% 71% 3641411 3.9 V
2026-08-31 02:55:26 ah03 0.88% 10.1% 71% 3641411 3.9 V
2026-08-31 02:55:12 IIXF 857.14 hPa 46.98% 12.44°C 154.67 Ohm
2026-08-31 02:55:12 IIXF 857.14 hPa 46.98% 12.44°C 154.67 Ohm
2026-08-31 02:54:49 EN11 0.13% 4.0% 101% 20779 4.13 V
2026-08-31 02:54:49 EN11 0.13% 4.0% 101% 20779 4.13 V
2026-08-31 02:54:13 PMT2 20.64°C
2026-08-31 02:54:12 PMT2 20.64°C
2026-08-31 02:54:10 PMT2 20.64°C
2026-08-31 02:54:09 PMT2 20.64°C
2026-08-31 02:50:30 DJMH 0.43% 0.9% 84% 16661765 4.02 V
2026-08-31 02:50:30 DJMH 0.43% 0.9% 84% 16661765 4.02 V
2026-08-31 02:49:35 LMGB 0.33% 1.1% 101% 760524 -0.0 V
2026-08-31 02:49:35 LMGB 0.33% 1.1% 101% 760524 -0.0 V
2026-08-31 02:48:57 ah01 1.21% 5.4% 96% 5934051 4.15 V
2026-08-31 02:48:57 ah01 1.21% 5.4% 96% 5934051 4.15 V
2026-08-31 02:48:51 ah01 1.21% 5.4% 96% 5934051 4.15 V
2026-08-31 02:48:49 ah01 1.21% 5.4% 96% 5934051 4.15 V
2026-08-31 02:46:49 LRX1 1.05% 1.1% 101% 7935842 4.84 V
2026-08-31 02:46:48 LRX1 1014.15 hPa 38.79% 21.22°C
2026-08-31 02:46:47 LRX1 1014.15 hPa 38.79% 21.22°C
2026-08-31 02:46:46 LRX1 1014.15 hPa 38.79% 21.22°C
2026-08-31 02:46:42 LRX1 1.05% 1.1% 101% 7935842 4.84 V
2026-08-31 02:46:41 LRX1 1014.15 hPa 38.79% 21.22°C
2026-08-31 02:46:41 LRX1 1014.15 hPa 38.79% 21.22°C
2026-08-31 02:45:14 EN01 1.04% 0.0% 100% 383602 4.2 V
2026-08-31 02:45:14 EN01 1.04% 0.0% 100% 383602 4.2 V
2026-08-31 02:43:41 LML2 0.3% 1.1% 100% 285194 4.14 V
2026-08-31 02:43:41 LML2 0.3% 1.1% 100% 285194 4.14 V
2026-08-31 02:39:21 EN06 0.02% 0.0% 85% 122916 4.03 V
2026-08-31 02:38:58 EEPr 0.67% 4.3% 101% 2045442 4.34 V
2026-08-31 02:38:58 EEPr 0.67% 4.3% 101% 2045442 4.34 V
2026-08-31 02:38:49 TG08 3.03% 3.1% 79% 140537 3.95 V
2026-08-31 02:38:48 J8ke 1.26% 3.1% 101% 38588 5.08 V
2026-08-31 02:38:48 TG08 19.97°C
2026-08-31 02:38:48 TG08 3.03% 3.1% 79% 140537 3.95 V
2026-08-31 02:38:47 J8ke 1.26% 3.1% 101% 38588 5.08 V
2026-08-31 02:38:47 J8ke 1.26% 3.1% 101% 38588 5.08 V
2026-08-31 02:38:27 PTRH 0.41% 2.0% 56% 1173462 3.77 V
2026-08-31 02:38:26 PTRH 0.41% 2.0% 56% 1173462 3.77 V
2026-08-31 02:38:26 IIXF 1.6% 4.1% 101% 908428 4.38 V
2026-08-31 02:38:25 IIXF 1.6% 4.1% 101% 908428 4.38 V
2026-08-31 02:38:06 dc64 0.53% 0.9% 94% 1052892 4.11 V
2026-08-31 02:38:06 dc64 0.53% 0.9% 94% 1052892 4.11 V
2026-08-31 02:38:06 dc64 0.53% 0.9% 94% 1052892 4.11 V
2026-08-31 02:37:12 IIXF 857.31 hPa 45.92% 13.01°C 143.82 Ohm
2026-08-31 02:37:12 IIXF 857.31 hPa 45.92% 13.01°C 143.82 Ohm
2026-08-31 02:36:51 BB04 2.23% 3.8% 101% 623983 -0.0 V
2026-08-31 02:36:51 BB04 2.23% 3.8% 101% 623983 -0.0 V
2026-08-31 02:36:49 BB04 2.23% 3.8% 101% 623983 -0.0 V
2026-08-31 02:36:47 BB04 2.23% 3.8% 101% 623983 -0.0 V
2026-08-31 02:36:47 BB04 2.23% 3.8% 101% 623983 -0.0 V
2026-08-31 02:31:51 MJTM 1.49% 4.1% 101% 4199817 4.23 V
2026-08-31 02:31:50 MJTM 1.49% 4.1% 101% 4199817 4.23 V
2026-08-31 02:31:48 MJTM 1.49% 4.1% 101% 4199817 4.23 V
2026-08-31 02:31:46 MJTM 1.49% 4.1% 101% 4199817 4.23 V
2026-08-31 02:31:46 MJTM 1.49% 4.1% 101% 4199817 4.23 V
2026-08-31 02:31:11 Rhee 0.35% 5.2% 97% 22929 4.14 V
2026-08-31 02:31:09 Rhee 0.35% 5.2% 97% 22929 4.14 V
2026-08-31 02:31:09 Rhee 0.35% 5.2% 97% 22929 4.14 V
2026-08-31 02:30:14 PMT2 1.45% 6.8% 101% 1541063 4.2 V
2026-08-31 02:30:13 PMT2 1.45% 6.8% 101% 1541063 4.2 V
2026-08-31 02:30:12 PMT2 1.45% 6.8% 101% 1541063 4.2 V
2026-08-31 02:30:10 PMT2 1.45% 6.8% 101% 1541063 4.2 V
2026-08-31 02:30:09 PMT2 1.45% 6.8% 101% 1541063 4.2 V
2026-08-31 02:30:00 RF03 0.1% 2.0% 99% 931027 4.19 V
2026-08-31 02:30:00 RF03 0.1% 2.0% 99% 931027 4.19 V
2026-08-31 02:30:00 RF03 0.1% 2.0% 99% 931027 4.19 V
2026-08-31 02:29:44 3bb8 1.56% 6.5% 101% 2119069 5.05 V
2026-08-31 02:29:44 3bb8 1.56% 6.5% 101% 2119069 5.05 V
2026-08-31 02:29:40 tge0 1.93% 5.8% 93% 9582279 4.11 V
2026-08-31 02:29:40 tge0 1.93% 5.8% 93% 9582279 4.11 V
2026-08-31 02:29:36 tge0 1.93% 5.8% 93% 9582279 4.11 V
2026-08-31 02:29:35 tge0 1.93% 5.8% 93% 9582279 4.11 V
2026-08-31 02:28:32 EN05 0.66% 4.4% 80% 219731 3.99 V
2026-08-31 02:28:32 ah03 696.34 hPa 70.07% 27.0°C
2026-08-31 02:28:32 ah03 696.34 hPa 70.07% 27.0°C
2026-08-31 02:28:30 ah03 696.34 hPa 70.07% 27.0°C
2026-08-31 02:28:28 ah03 696.34 hPa 70.07% 27.0°C
2026-08-31 02:28:05 Jim1 1.11% 6.5% 85% 17015750 4.02 V
2026-08-31 02:28:05 Jim1 1.11% 6.5% 85% 17015750 4.02 V
2026-08-31 02:28:05 Jim1 1.11% 6.5% 85% 17015750 4.02 V
2026-08-31 02:27:35 EEPa 853.75 hPa 44.93% 19.6°C
2026-08-31 02:27:34 EEPa 853.75 hPa 44.93% 19.6°C
2026-08-31 02:26:27 7274 1.16% 4.4% 100% 2149593 4.11 V
2026-08-31 02:26:27 7274 1.16% 4.4% 100% 2149593 4.11 V
2026-08-31 02:26:27 7274 1.16% 4.4% 100% 2149593 4.11 V
2026-08-31 02:26:18 DOS 1.06% 6.9% 98% 5596510 4.16 V
2026-08-31 02:26:17 DOS 1.06% 6.9% 98% 5596510 4.16 V
2026-08-31 02:26:14 DOS 1.06% 6.9% 98% 5596510 4.16 V
2026-08-31 02:26:12 DOS 1.06% 6.9% 98% 5596510 4.16 V
2026-08-31 02:26:11 DOS 1.06% 6.9% 98% 5596510 4.16 V
2026-08-31 02:24:57 ah03
2026-08-31 02:24:57 ah03
2026-08-31 02:24:55 ah03 0.88% 8.9% 71% 3639574 3.9 V
2026-08-31 02:24:55 ah03 0.88% 8.9% 71% 3639574 3.9 V
2026-08-31 02:24:53 ah03 0.88% 8.9% 71% 3639574 3.9 V
2026-08-31 02:24:51 ah03 0.88% 8.9% 71% 3639574 3.9 V
2026-08-31 02:24:13 PMT2 20.82°C
2026-08-31 02:24:13 PMT2 20.82°C
2026-08-31 02:24:11 PMT2 20.82°C
2026-08-31 02:24:09 PMT2 20.82°C
2026-08-31 02:24:09 PMT2 20.82°C
2026-08-31 02:23:04 EN60 1.67% 15.7% 76% 45861 3.96 V
2026-08-31 02:23:04 EN60 1.67% 15.7% 76% 45861 3.96 V
2026-08-31 02:22:50 LRX1 1013.92 hPa 38.6% 21.3°C
2026-08-31 02:22:49 LRX1 1013.92 hPa 38.6% 21.3°C
2026-08-31 02:22:49 LRX1 1013.92 hPa 38.6% 21.3°C
2026-08-31 02:22:44 LRX1 1.04% 0.0% 101% 7934402 4.84 V
2026-08-31 02:22:44 LRX1 1.04% 0.0% 101% 7934402 4.84 V
2026-08-31 02:22:41 LRX1 1013.92 hPa 38.6% 21.3°C
2026-08-31 02:22:41 LRX1 1.04% 0.0% 101% 7934402 4.84 V
2026-08-31 02:22:41 LRX1 1013.92 hPa 38.6% 21.3°C
2026-08-31 02:20:40 DJMH 0.38% 0.0% 85% 16659965 4.02 V
2026-08-31 02:20:40 DJMH 0.38% 0.0% 85% 16659965 4.02 V
2026-08-31 02:20:34 DJMH 0.38% 0.0% 85% 16659965 4.02 V
2026-08-31 02:20:33 DJMH 0.38% 0.0% 85% 16659965 4.02 V
2026-08-31 02:20:26 IIXF 1.6% 4.1% 101% 907348 4.39 V
2026-08-31 02:20:25 IIXF 1.6% 4.1% 101% 907348 4.39 V
2026-08-31 02:19:12 IIXF 857.37 hPa 46.24% 12.71°C 149.58 Ohm
2026-08-31 02:19:12 IIXF 857.37 hPa 46.24% 12.71°C 149.58 Ohm
2026-08-31 02:16:21 RF01 0.22% 0.0% 101% 1160585 4.21 V
2026-08-31 02:16:21 RF01 0.22% 0.0% 101% 1160585 4.21 V
2026-08-31 02:16:21 RF01 0.22% 0.0% 101% 1160585 4.21 V
2026-08-31 02:16:15 RF01 0.22% 0.0% 101% 1160585 4.21 V
2026-08-31 02:16:14 RF01 0.22% 0.0% 101% 1160585 4.21 V
2026-08-31 02:16:14 RF01 0.22% 0.0% 101% 1160585 4.21 V
2026-08-31 02:15:25 J8ke
2026-08-31 02:15:25 J8ke
2026-08-31 02:15:24 J8ke
2026-08-31 02:15:07 J8ke 0.38 V
2026-08-31 02:15:06 J8ke 0.38 V
2026-08-31 02:15:06 J8ke 0.38 V
2026-08-31 02:14:47 J8ke 1.11% 4.5% 101% 37148 5.08 V
2026-08-31 02:14:45 J8ke 1.11% 4.5% 101% 37148 5.08 V
2026-08-31 02:14:45 J8ke 1.11% 4.5% 101% 37148 5.08 V
2026-08-31 02:13:34 LMGB 0.36% 1.1% 101% 758363 -0.0 V
2026-08-31 02:13:33 LMGB 0.36% 1.1% 101% 758363 -0.0 V
2026-08-31 02:12:24 XYZJ 1.0% 1.1% 37% 377533 3.61 V
2026-08-31 02:12:24 XYZJ 1.0% 1.1% 37% 377533 3.61 V
2026-08-31 02:12:23 XYZJ 1.0% 1.1% 37% 377533 3.61 V
2026-08-31 02:12:23 XYZJ 1.0% 1.1% 37% 377533 3.61 V
2026-08-31 02:12:22 XYZJ 1.0% 1.1% 37% 377533 3.61 V
2026-08-31 02:12:12 TTBM 2.2% 0.0% 74% 57265 3.93 V
2026-08-31 02:12:11 TTBM 2.2% 0.0% 74% 57265 3.93 V
2026-08-31 02:08:52 EEPr 0.59% 0.0% 101% 2043636 4.34 V
2026-08-31 02:08:52 EEPr 0.59% 0.0% 101% 2043636 4.34 V
2026-08-31 02:08:49 TG08 2.95% 0.0% 80% 138735 3.96 V
2026-08-31 02:08:48 TG08 2.95% 0.0% 80% 138735 3.96 V
2026-08-31 02:08:48 TG08 19.93°C
2026-08-31 02:07:41 LML2 0.35% 0.0% 100% 283034 4.14 V
2026-08-31 02:07:41 LML2 0.35% 0.0% 100% 283034 4.14 V
2026-08-31 02:07:15 Rhee 0.28% 1.0% 98% 21489 4.14 V
2026-08-31 02:07:13 Rhee 0.28% 1.0% 98% 21489 4.14 V
2026-08-31 02:07:13 Rhee 0.28% 1.0% 98% 21489 4.14 V
2026-08-31 02:03:01 ah02 70.29% 13.54°C
2026-08-31 02:02:59 ah02 70.29% 13.54°C
2026-08-31 02:02:56 ah02 70.29% 13.54°C
2026-08-31 02:02:56 ah02 70.29% 13.54°C
2026-08-31 02:02:34 PTRH 0.4% 1.9% 55% 1171302 3.77 V
2026-08-31 02:02:34 ah02 0.04% 11.5% 59% 61 3.8 V
2026-08-31 02:02:33 PTRH 0.4% 1.9% 55% 1171302 3.77 V
2026-08-31 02:02:32 ah02 0.04% 11.5% 59% 61 3.8 V
2026-08-31 02:02:32 ah02 0.04% 11.5% 59% 61 3.8 V
2026-08-31 02:02:26 PTRH 0.4% 1.9% 55% 1171302 3.77 V
2026-08-31 02:02:26 PTRH 0.4% 1.9% 55% 1171302 3.77 V
2026-08-31 02:00:53 ah01 1.28% 5.9% 96% 5931169 4.15 V
2026-08-31 02:00:51 ah01 1.28% 5.9% 96% 5931169 4.15 V
2026-08-31 02:00:51 ah01 1.28% 5.9% 96% 5931169 4.15 V
2026-08-31 02:00:47 ah01 1.28% 5.9% 96% 5931169 4.15 V
2026-08-31 02:00:16 PMT2 1.31% 3.0% 101% 1539263 4.2 V
2026-08-31 02:00:14 PMT2 1.31% 3.0% 101% 1539263 4.2 V
2026-08-31 02:00:14 PMT2 1.31% 3.0% 101% 1539263 4.2 V
2026-08-31 02:00:09 PMT2 1.31% 3.0% 101% 1539263 4.2 V
2026-08-31 02:00:09 PMT2 1.31% 3.0% 101% 1539263 4.2 V
2026-08-31 01:59:26 IIXF 1.61% 7.4% 101% 906088 4.36 V
2026-08-31 01:59:25 IIXF 1.61% 7.4% 101% 906088 4.36 V
2026-08-31 01:58:48 LRX1 0.83% 0.0% 101% 7932962 4.83 V
2026-08-31 01:58:47 LRX1 0.83% 0.0% 101% 7932962 4.83 V
2026-08-31 01:58:45 EN05 0.67% 6.0% 81% 217930 4.0 V
2026-08-31 01:58:45 EN05 0.67% 6.0% 81% 217930 4.0 V
2026-08-31 01:58:42 LRX1 1013.91 hPa 38.66% 21.29°C
2026-08-31 01:58:41 LRX1 1013.91 hPa 38.66% 21.29°C
2026-08-31 01:58:41 LRX1 0.83% 0.0% 101% 7932962 4.83 V
2026-08-31 01:58:40 LRX1 1013.91 hPa 38.66% 21.29°C
2026-08-31 01:58:28 EN05 0.67% 6.0% 81% 217930 4.0 V
2026-08-31 01:58:12 ah03 696.34 hPa 69.65% 27.0°C
2026-08-31 01:58:12 IIXF 857.4 hPa 42.87% 13.93°C 180.78 Ohm
2026-08-31 01:58:12 ah03 696.34 hPa 69.65% 27.0°C
2026-08-31 01:58:11 IIXF 857.4 hPa 42.87% 13.93°C 180.78 Ohm
2026-08-31 01:58:10 ah03 696.34 hPa 69.65% 27.0°C
2026-08-31 01:58:08 ah03 696.34 hPa 69.65% 27.0°C
2026-08-31 01:54:51 htec 3.18% 10.3% 101% 11762 4.21 V
2026-08-31 01:54:51 htec 3.18% 10.3% 101% 11762 4.21 V
2026-08-31 01:54:50 htec 3.18% 10.3% 101% 11762 4.21 V
2026-08-31 01:54:47 htec 3.18% 10.3% 101% 11762 4.21 V
2026-08-31 01:54:46 htec 3.18% 10.3% 101% 11762 4.21 V
2026-08-31 01:54:46 EN11 0.28% 6.3% 101% 17176 4.08 V
2026-08-31 01:54:46 EN11 0.28% 6.3% 101% 17176 4.08 V
2026-08-31 01:54:13 PMT2 21.26°C
2026-08-31 01:54:11 PMT2 21.26°C
2026-08-31 01:54:09 PMT2 21.26°C
2026-08-31 01:54:08 PMT2 21.26°C
2026-08-31 01:54:05 ah03
2026-08-31 01:54:05 ah03
2026-08-31 01:54:02 ah03
2026-08-31 01:54:00 ah03 0.91% 10.3% 71% 3637717 3.9 V
2026-08-31 01:53:57 ah03 0.91% 10.3% 71% 3637717 3.9 V
2026-08-31 01:51:27 EEPa 0.3% 3.9% 100% 6569777 4.14 V
2026-08-31 01:51:26 EEPa 0.3% 3.9% 100% 6569777 4.14 V
2026-08-31 01:50:43 DJMH 0.36% 0.9% 85% 16658165 4.02 V
2026-08-31 01:50:43 DJMH 0.36% 0.9% 85% 16658165 4.02 V
2026-08-31 01:50:30 DJMH 0.36% 0.9% 85% 16658165 4.02 V
2026-08-31 01:50:30 DJMH 0.36% 0.9% 85% 16658165 4.02 V
2026-08-31 01:50:27 7274 1.02% 5.0% 100% 2147433 4.11 V
2026-08-31 01:50:26 7274 1.02% 5.0% 100% 2147433 4.11 V
2026-08-31 01:50:26 7274 1.02% 5.0% 100% 2147433 4.11 V
2026-08-31 01:45:26 EEPa 854.01 hPa 44.64% 19.72°C
2026-08-31 01:45:25 EEPa 854.01 hPa 44.64% 19.72°C
2026-08-31 01:45:23 EN01 1.35% 0.0% 100% 380001 4.2 V
2026-08-31 01:45:23 EN01 1.35% 0.0% 100% 380001 4.2 V
2026-08-31 01:45:14 EN01 1.35% 0.0% 100% 380001 4.2 V
2026-08-31 01:45:13 EN01 1.35% 0.0% 100% 380001 4.2 V
2026-08-31 01:43:18 Rhee 0.3% 5.1% 98% 20049 4.14 V
2026-08-31 01:43:11 Rhee 0.3% 5.1% 98% 20049 4.14 V
2026-08-31 01:43:10 Rhee 0.3% 5.1% 98% 20049 4.14 V
2026-08-31 01:39:21 EN06 0.05% 13.7% 85% 119315 4.02 V
2026-08-31 01:38:47 TG08 20.15°C
2026-08-31 01:38:46 TG08 3.0% 5.4% 79% 136934 3.95 V
2026-08-31 01:38:46 EEPr 0.5% 0.0% 101% 2041830 4.34 V
2026-08-31 01:38:46 EEPr 0.5% 0.0% 101% 2041830 4.34 V
2026-08-31 01:38:46 TG08 3.0% 5.4% 79% 136934 3.95 V
2026-08-31 01:38:26 IIXF 1.57% 6.3% 101% 904827 4.38 V
2026-08-31 01:38:25 IIXF 1.57% 6.3% 101% 904827 4.38 V
2026-08-31 01:37:33 LMGB 0.34% 2.2% 101% 756202 -0.0 V
2026-08-31 01:37:33 LMGB 0.34% 2.2% 101% 756202 -0.0 V
2026-08-31 01:37:12 IIXF 857.56 hPa 45.02% 13.13°C 157.72 Ohm
2026-08-31 01:37:11 IIXF 857.56 hPa 45.02% 13.13°C 157.72 Ohm
2026-08-31 01:36:50 BB04 2.1% 2.1% 101% 620383 -0.0 V
2026-08-31 01:36:48 BB04 2.1% 2.1% 101% 620383 -0.0 V
2026-08-31 01:36:48 BB04 2.1% 2.1% 101% 620383 -0.0 V
2026-08-31 01:36:48 BB04 2.1% 2.1% 101% 620383 -0.0 V
2026-08-31 01:34:48 LRX1 0.85% 0.0% 101% 7931521 4.85 V
2026-08-31 01:34:45 LRX1 1013.7 hPa 38.19% 21.3°C
2026-08-31 01:34:45 LRX1 1013.7 hPa 38.19% 21.3°C
2026-08-31 01:34:41 LRX1 1013.7 hPa 38.19% 21.3°C
2026-08-31 01:34:41 LRX1 0.85% 0.0% 101% 7931521 4.85 V
2026-08-31 01:34:40 LRX1 1013.7 hPa 38.19% 21.3°C
2026-08-31 01:31:41 LML2 0.32% 1.3% 100% 280874 4.14 V
2026-08-31 01:31:41 LML2 0.32% 1.3% 100% 280874 4.14 V
2026-08-31 01:30:24 PMT2 1.09% 9.1% 101% 1537462 4.2 V
2026-08-31 01:30:23 PMT2 1.09% 9.1% 101% 1537462 4.2 V
2026-08-31 01:30:09 PMT2 1.09% 9.1% 101% 1537462 4.2 V
2026-08-31 01:30:08 PMT2 1.09% 9.1% 101% 1537462 4.2 V
2026-08-31 01:30:02 RF03 0.05% 1.0% 99% 927425 4.18 V
2026-08-31 01:30:01 RF03 0.05% 1.0% 99% 927425 4.18 V
2026-08-31 01:30:01 RF03 0.05% 1.0% 99% 927425 4.18 V
2026-08-31 01:29:58 RF03 0.05% 1.0% 99% 927425 4.18 V
2026-08-31 01:29:58 RF03 0.05% 1.0% 99% 927425 4.18 V
2026-08-31 01:29:58 RF03 0.05% 1.0% 99% 927425 4.18 V
2026-08-31 01:29:44 3bb8 1.31% 2.1% 101% 2115469 5.05 V
2026-08-31 01:29:44 3bb8 1.31% 2.1% 101% 2115469 5.05 V
2026-08-31 01:29:12 TTBM 2.16% 1.1% 75% 54685 3.94 V
2026-08-31 01:29:11 TTBM 2.16% 1.1% 75% 54685 3.94 V
2026-08-31 01:28:53 EN05 0.9% 8.6% 82% 216130 4.01 V
2026-08-31 01:28:53 EN05 0.9% 8.6% 82% 216130 4.01 V
2026-08-31 01:28:27 EN05 0.9% 8.6% 82% 216130 4.01 V
2026-08-31 01:28:06 Jim1 0.8% 5.1% 85% 17012149 4.02 V
2026-08-31 01:28:05 Jim1 0.8% 5.1% 85% 17012149 4.02 V
2026-08-31 01:28:05 Jim1 0.8% 5.1% 85% 17012149 4.02 V
2026-08-31 01:28:05 Jim1 0.8% 5.1% 85% 17012149 4.02 V
2026-08-31 01:27:32 RLSC 1004.24 hPa 68.42% 10.28°C
2026-08-31 01:27:32 RLSC 1004.24 hPa 68.42% 10.28°C
2026-08-31 01:27:11 ah03 696.34 hPa 68.71% 27.0°C
2026-08-31 01:27:10 ah03 696.34 hPa 68.71% 27.0°C
2026-08-31 01:27:09 ah03 696.34 hPa 68.71% 27.0°C
2026-08-31 01:27:06 ah03 696.34 hPa 68.71% 27.0°C
2026-08-31 01:26:47 J8ke 1.08% 6.3% 101% 34268 5.09 V
2026-08-31 01:26:46 J8ke 1.08% 6.3% 101% 34268 5.09 V
2026-08-31 01:26:46 J8ke 1.08% 6.3% 101% 34268 5.09 V
2026-08-31 01:24:24 XYZJ 1.0% 7.5% 39% 374653 3.63 V
2026-08-31 01:24:23 XYZJ 1.0% 7.5% 39% 374653 3.63 V
2026-08-31 01:24:22 XYZJ 1.0% 7.5% 39% 374653 3.63 V
2026-08-31 01:24:20 XYZJ 1.0% 7.5% 39% 374653 3.63 V
2026-08-31 01:24:19 XYZJ 1.0% 7.5% 39% 374653 3.63 V
2026-08-31 01:24:12 PMT2 21.26°C
2026-08-31 01:24:11 PMT2 21.26°C
2026-08-31 01:24:10 PMT2 21.26°C
2026-08-31 01:24:08 PMT2 21.26°C
2026-08-31 01:24:08 PMT2 21.26°C
2026-08-31 01:24:06 ah03
2026-08-31 01:24:06 ah03
2026-08-31 01:24:02 ah03
2026-08-31 01:24:02 ah03
2026-08-31 01:24:02 ah03
2026-08-31 01:23:59 ah03 0.91% 7.0% 71% 3635908 3.91 V
2026-08-31 01:23:56 ah03 0.91% 7.0% 71% 3635908 3.91 V
2026-08-31 01:23:56 ah03 0.91% 7.0% 71% 3635908 3.91 V
2026-08-31 01:23:51 ah03 0.91% 7.0% 71% 3635908 3.91 V
2026-08-31 01:20:46 MJTH 0.95% 3.2% 79% 7442 3.99 V
2026-08-31 01:20:44 MJTH 0.95% 3.2% 79% 7442 3.99 V
2026-08-31 01:20:44 MJTH 0.95% 3.2% 79% 7442 3.99 V
2026-08-31 01:20:44 MJTH 0.95% 3.2% 79% 7442 3.99 V
2026-08-31 01:20:32 PTRH 0.41% 2.0% 55% 1168782 3.76 V
2026-08-31 01:20:31 PTRH 0.41% 2.0% 55% 1168782 3.76 V
2026-08-31 01:20:26 PTRH 0.41% 2.0% 55% 1168782 3.76 V
2026-08-31 01:20:26 PTRH 0.41% 2.0% 55% 1168782 3.76 V
2026-08-31 01:19:12 Rhee 0.35% 10.3% 98% 18609 4.14 V
2026-08-31 01:19:09 Rhee 0.35% 10.3% 98% 18609 4.14 V
2026-08-31 01:19:09 Rhee 0.35% 10.3% 98% 18609 4.14 V
2026-08-31 01:18:48 ah01 1.26% 9.5% 96% 5928647 4.15 V
2026-08-31 01:18:47 ah01 1.26% 9.5% 96% 5928647 4.15 V
2026-08-31 01:18:45 ah01 1.26% 9.5% 96% 5928647 4.15 V
2026-08-31 01:17:26 IIXF 1.63% 5.2% 101% 903567 4.36 V
2026-08-31 01:17:25 IIXF 1.63% 5.2% 101% 903567 4.36 V
2026-08-31 01:16:14 RF01 0.23% 2.0% 101% 1156985 4.24 V
2026-08-31 01:16:14 RF01 0.23% 2.0% 101% 1156985 4.24 V
2026-08-31 01:16:14 RF01 0.23% 2.0% 101% 1156985 4.24 V
2026-08-31 01:16:12 IIXF 857.66 hPa 46.66% 12.63°C 140.34 Ohm
2026-08-31 01:16:11 IIXF 857.66 hPa 46.66% 12.63°C 140.34 Ohm
2026-08-31 01:14:26 7274 1.03% 5.6% 100% 2145272 4.11 V
2026-08-31 01:14:26 7274 1.03% 5.6% 100% 2145272 4.11 V
2026-08-31 01:14:26 7274 1.03% 5.6% 100% 2145272 4.11 V
2026-08-31 01:14:04 dc64 0.44% 0.0% 95% 1047852 4.13 V
2026-08-31 01:14:03 dc64 0.44% 0.0% 95% 1047852 4.13 V
2026-08-31 01:14:03 dc64 0.44% 0.0% 95% 1047852 4.13 V
2026-08-31 01:10:45 LRX1 1013.67 hPa 37.94% 21.28°C
2026-08-31 01:10:44 LRX1 0.86% 0.0% 101% 7930081 4.85 V
2026-08-31 01:10:44 LRX1 0.86% 0.0% 101% 7930081 4.85 V
2026-08-31 01:10:41 LRX1 0.86% 0.0% 101% 7930081 4.85 V
2026-08-31 01:10:40 LRX1 1013.67 hPa 37.94% 21.28°C
2026-08-31 01:10:40 LRX1 1013.67 hPa 37.94% 21.28°C
2026-08-31 01:08:46 TG08 2.69% 1.1% 83% 135133 3.98 V
2026-08-31 01:08:46 TG08 19.9°C
2026-08-31 01:08:46 TG08 2.69% 1.1% 83% 135133 3.98 V
2026-08-31 01:08:40 EEPr 0.48% 4.9% 101% 2040023 4.34 V
2026-08-31 01:08:39 EEPr 0.48% 4.9% 101% 2040023 4.34 V
2026-08-31 01:03:16 EEPa 854.33 hPa 44.11% 19.82°C
2026-08-31 01:03:15 EEPa 854.33 hPa 44.11% 19.82°C
2026-08-31 01:02:49 J8ke 1.11% 3.3% 101% 32828 5.08 V
2026-08-31 01:02:49 J8ke 1.11% 3.3% 101% 32828 5.08 V
2026-08-31 01:01:33 LMGB 0.34% 1.1% 101% 754042 -0.0 V
2026-08-31 01:01:33 LMGB 0.34% 1.1% 101% 754042 -0.0 V
2026-08-31 01:00:32 ah02 70.74% 13.56°C
2026-08-31 01:00:32 ah02 70.74% 13.56°C
2026-08-31 01:00:30 ah02 70.74% 13.56°C
2026-08-31 01:00:28 ah02 70.74% 13.56°C
2026-08-31 01:00:28 ah02 70.74% 13.56°C
2026-08-31 01:00:08 PMT2 0.84% 11.0% 101% 1535661 4.2 V
2026-08-31 01:00:07 PMT2 0.84% 11.0% 101% 1535661 4.2 V
2026-08-31 01:00:05 ah02 0.04% 17.1% 58% 60 3.78 V
2026-08-31 01:00:03 ah02 0.04% 17.1% 58% 60 3.78 V
2026-08-31 01:00:03 ah02 0.04% 17.1% 58% 60 3.78 V
2026-08-31 01:00:01 5RC 1018.55 hPa 64.21% 18.22°C
2026-08-31 01:00:01 5RC 1018.55 hPa 64.21% 18.22°C
2026-08-31 00:59:58 RF03 0.05% 4.6% 99% 925625 4.19 V
2026-08-31 00:59:57 RF03 0.05% 4.6% 99% 925625 4.19 V
2026-08-31 00:59:57 RF03 0.05% 4.6% 99% 925625 4.19 V
2026-08-31 00:59:55 5RC 1018.55 hPa 64.21% 18.22°C
2026-08-31 00:59:45 5RC 4.23% 14.4% 95% 113529 4.12 V
2026-08-31 00:59:45 5RC 4.23% 14.4% 95% 113529 4.12 V
2026-08-31 00:59:40 5RC 1018.55 hPa 64.21% 18.22°C
2026-08-31 00:59:40 5RC 4.23% 14.4% 95% 113529 4.12 V
2026-08-31 00:59:39 5RC 4.23% 14.4% 95% 113529 4.12 V
2026-08-31 00:58:38 EN05 0.96% 5.5% 83% 214330 4.01 V
2026-08-31 00:58:38 EN05 0.96% 5.5% 83% 214330 4.01 V
2026-08-31 00:58:23 EN05 0.96% 5.5% 83% 214330 4.01 V
2026-08-31 00:56:35 ah03 696.34 hPa 67.38% 27.0°C
2026-08-31 00:56:33 ah03 696.34 hPa 67.38% 27.0°C
2026-08-31 00:56:26 IIXF 1.65% 5.6% 101% 902307 4.39 V
2026-08-31 00:56:25 IIXF 1.65% 5.6% 101% 902307 4.39 V
2026-08-31 00:55:41 LML2 0.33% 1.1% 100% 278713 4.14 V
2026-08-31 00:55:40 LML2 0.33% 1.1% 100% 278713 4.14 V
2026-08-31 00:55:12 IIXF 857.67 hPa 42.07% 14.4°C 169.65 Ohm
2026-08-31 00:55:11 IIXF 857.67 hPa 42.07% 14.4°C 169.65 Ohm
2026-08-31 00:54:48 EN11 0.37% 11.4% 101% 13573 4.08 V
2026-08-31 00:54:47 EN11 0.37% 11.4% 101% 13573 4.08 V
2026-08-31 00:54:13 PMT2 21.21°C
2026-08-31 00:54:10 PMT2 21.21°C
2026-08-31 00:54:07 PMT2 21.21°C
2026-08-31 00:54:07 PMT2 21.21°C
2026-08-31 00:53:06 ah03 0.91% 7.0% 72% 3634053 3.91 V
2026-08-31 00:53:05 ah03 0.91% 7.0% 72% 3634053 3.91 V
2026-08-31 00:53:02 ah03 0.91% 7.0% 72% 3634053 3.91 V
2026-08-31 00:53:02 ah03 0.91% 7.0% 72% 3634053 3.91 V
2026-08-31 00:52:58 ah03 0.91% 7.0% 72% 3634053 3.91 V
2026-08-31 00:50:48 MJTH 0.94% 7.8% 79% 5641 3.99 V
2026-08-31 00:50:48 MJTH 0.94% 7.8% 79% 5641 3.99 V
2026-08-31 00:50:44 MJTH 0.94% 7.8% 79% 5641 3.99 V
2026-08-31 00:50:43 MJTH 0.94% 7.8% 79% 5641 3.99 V
2026-08-31 00:50:43 MJTH 0.94% 7.8% 79% 5641 3.99 V
2026-08-31 00:46:50 LRX1 0.88% 4.3% 101% 7928641 4.84 V
2026-08-31 00:46:50 LRX1 0.88% 4.3% 101% 7928641 4.84 V
2026-08-31 00:46:46 LRX1 0.88% 4.3% 101% 7928641 4.84 V
2026-08-31 00:46:46 LRX1 1013.96 hPa 38.31% 21.32°C
2026-08-31 00:46:43 LRX1 1013.96 hPa 38.31% 21.32°C
2026-08-31 00:46:41 LRX1 1013.96 hPa 38.31% 21.32°C
2026-08-31 00:46:40 LRX1 1013.96 hPa 38.31% 21.32°C
2026-08-31 00:45:48 ah01 1.12% 6.1% 96% 5926666 4.15 V
2026-08-31 00:45:46 ah01 1.12% 6.1% 96% 5926666 4.15 V
2026-08-31 00:45:46 ah01 1.12% 6.1% 96% 5926666 4.15 V
2026-08-31 00:45:43 ah01 1.12% 6.1% 96% 5926666 4.15 V
2026-08-31 00:45:13 EN01 0.49% 2.0% 100% 376399 4.19 V
2026-08-31 00:45:12 EN01 0.49% 2.0% 100% 376399 4.19 V
2026-08-31 00:39:23 J8ke
2026-08-31 00:39:23 J8ke
2026-08-31 00:39:22 J8ke
2026-08-31 00:39:20 EN06 0.02% 0.0% 86% 115714 4.03 V
2026-08-31 00:39:11 TTBM 2.19% 6.2% 76% 51685 3.95 V
2026-08-31 00:39:11 TTBM 2.19% 6.2% 76% 51685 3.95 V
2026-08-31 00:39:07 J8ke 0.38 V
2026-08-31 00:39:06 J8ke 0.38 V
2026-08-31 00:39:06 J8ke 0.38 V
2026-08-31 00:38:45 TG08 2.86% 2.1% 84% 133331 4.0 V
2026-08-31 00:38:45 TG08 19.5°C
2026-08-31 00:38:44 J8ke 1.12% 5.3% 101% 31388 5.08 V
2026-08-31 00:38:44 TG08 2.86% 2.1% 84% 133331 4.0 V
2026-08-31 00:38:41 J8ke 1.12% 5.3% 101% 31388 5.08 V
2026-08-31 00:38:41 J8ke 1.12% 5.3% 101% 31388 5.08 V
2026-08-31 00:38:33 EEPr 0.71% 7.2% 101% 2038217 4.34 V
2026-08-31 00:38:33 EEPr 0.71% 7.2% 101% 2038217 4.34 V
2026-08-31 00:38:28 PTRH 0.72% 0.0% 55% 1166261 3.77 V
2026-08-31 00:38:26 PTRH 0.72% 0.0% 55% 1166261 3.77 V
2026-08-31 00:38:26 7274 0.99% 3.3% 100% 2143112 4.11 V
2026-08-31 00:38:26 7274 0.99% 3.3% 100% 2143112 4.11 V
2026-08-31 00:38:26 7274 0.99% 3.3% 100% 2143112 4.11 V
2026-08-31 00:38:25 PTRH 0.72% 0.0% 55% 1166261 3.77 V
2026-08-31 00:36:52 BB04 2.27% 4.6% 101% 616782 -0.0 V
2026-08-31 00:36:51 BB04 2.27% 4.6% 101% 616782 -0.0 V
2026-08-31 00:36:50 BB04 2.27% 4.6% 101% 616782 -0.0 V
2026-08-31 00:36:47 BB04 2.27% 4.6% 101% 616782 -0.0 V
2026-08-31 00:36:47 BB04 2.27% 4.6% 101% 616782 -0.0 V
2026-08-31 00:36:25 XYZJ 0.76% 2.1% 38% 371773 3.62 V
2026-08-31 00:36:22 XYZJ 0.76% 2.1% 38% 371773 3.62 V
2026-08-31 00:36:19 XYZJ 0.76% 2.1% 38% 371773 3.62 V
2026-08-31 00:36:19 XYZJ 0.76% 2.1% 38% 371773 3.62 V
2026-08-31 00:35:25 IIXF 1.65% 4.0% 101% 901047 4.31 V
2026-08-31 00:35:25 IIXF 1.65% 4.0% 101% 901047 4.31 V
2026-08-31 00:34:12 IIXF 857.76 hPa 44.08% 13.73°C 149.05 Ohm
2026-08-31 00:34:11 IIXF 857.76 hPa 44.08% 13.73°C 149.05 Ohm
2026-08-31 00:30:11 PMT2 0.93% 6.5% 101% 1533861 4.2 V
2026-08-31 00:30:11 PMT2 0.93% 6.5% 101% 1533861 4.2 V
2026-08-31 00:30:07 PMT2 0.93% 6.5% 101% 1533861 4.2 V
2026-08-31 00:30:07 PMT2 0.93% 6.5% 101% 1533861 4.2 V
2026-08-31 00:29:44 3bb8 1.35% 11.2% 101% 2111869 5.04 V
2026-08-31 00:29:44 3bb8 1.35% 11.2% 101% 2111869 5.04 V
2026-08-31 00:28:40 EN05 0.61% 3.2% 84% 212529 4.02 V
2026-08-31 00:28:28 EN05 0.61% 3.2% 84% 212529 4.02 V
2026-08-31 00:28:14 RF01 0.17% 3.5% 101% 1154104 4.21 V
2026-08-31 00:28:14 RF01 0.17% 3.5% 101% 1154104 4.21 V
2026-08-31 00:28:14 RF01 0.17% 3.5% 101% 1154104 4.21 V
2026-08-31 00:27:46 htec 3.21% 7.4% 101% 6542 4.22 V
2026-08-31 00:27:45 htec 3.21% 7.4% 101% 6542 4.22 V
2026-08-31 00:26:44 MJTH 0.93% 3.9% 78% 4201 3.97 V
2026-08-31 00:26:43 MJTH 0.93% 3.9% 78% 4201 3.97 V
2026-08-31 00:26:43 MJTH 0.93% 3.9% 78% 4201 3.97 V
2026-08-31 00:26:42 MJTH 0.93% 3.9% 78% 4201 3.97 V
2026-08-31 00:26:37 ah03 696.34 hPa 68.26% 27.0°C
2026-08-31 00:26:34 ah03 696.34 hPa 68.26% 27.0°C
2026-08-31 00:26:34 ah03 696.34 hPa 68.26% 27.0°C
2026-08-31 00:26:30 ah03 696.34 hPa 68.26% 27.0°C
2026-08-31 00:25:33 LMGB 0.31% 1.1% 101% 751882 -0.0 V
2026-08-31 00:25:32 LMGB 0.31% 1.1% 101% 751882 -0.0 V
2026-08-31 00:24:11 PMT2 21.34°C
2026-08-31 00:24:11 PMT2 21.34°C
2026-08-31 00:24:09 PMT2 21.34°C
2026-08-31 00:24:07 PMT2 21.34°C
2026-08-31 00:24:07 PMT2 21.34°C
2026-08-31 00:22:56 LRX1 0.89% 0.0% 101% 7927201 4.85 V
2026-08-31 00:22:55 LRX1 0.89% 0.0% 101% 7927201 4.85 V
2026-08-31 00:22:51 ah03 0.88% 1.9% 72% 3632231 3.92 V
2026-08-31 00:22:50 ah03
2026-08-31 00:22:50 ah03
2026-08-31 00:22:48 LRX1 0.89% 0.0% 101% 7927201 4.85 V
2026-08-31 00:22:47 LRX1 0.89% 0.0% 101% 7927201 4.85 V
2026-08-31 00:22:47 LRX1 0.89% 0.0% 101% 7927201 4.85 V
2026-08-31 00:22:46 ah03
2026-08-31 00:22:46 ah03
2026-08-31 00:22:45 ah03
2026-08-31 00:22:39 ah03 0.88% 1.9% 72% 3632231 3.92 V
2026-08-31 00:21:09 EEPa 854.21 hPa 42.83% 19.91°C
2026-08-31 00:21:09 EEPa 854.21 hPa 42.83% 19.91°C
2026-08-31 00:20:33 DJMH 0.38% 0.0% 86% 16652764 4.03 V
2026-08-31 00:20:32 DJMH 0.38% 0.0% 86% 16652764 4.03 V
2026-08-31 00:20:32 DJMH 0.38% 0.0% 86% 16652764 4.03 V
2026-08-31 00:19:47 MJTM 1.07% 3.0% 99% 4191896 4.18 V
2026-08-31 00:19:46 MJTM 1.07% 3.0% 99% 4191896 4.18 V
2026-08-31 00:19:46 MJTM 1.07% 3.0% 99% 4191896 4.18 V
2026-08-31 00:19:45 MJTM 1.07% 3.0% 99% 4191896 4.18 V
2026-08-31 00:19:41 LML2 0.29% 2.4% 100% 276553 4.14 V
2026-08-31 00:19:40 LML2 0.29% 2.4% 100% 276553 4.14 V
2026-08-31 00:17:25 IIXF 1.59% 4.5% 98% 899967 4.16 V
2026-08-31 00:17:25 IIXF 1.59% 4.5% 98% 899967 4.16 V
2026-08-31 00:16:11 IIXF 857.97 hPa 42.44% 14.27°C 158.91 Ohm
2026-08-31 00:16:11 IIXF 857.97 hPa 42.44% 14.27°C 158.91 Ohm
2026-08-31 00:12:41 ah01 1.09% 8.8% 96% 5924684 4.15 V
2026-08-31 00:08:44 TG08 3.71% 1.1% 86% 131530 4.01 V
2026-08-31 00:08:43 TG08 3.71% 1.1% 86% 131530 4.01 V
2026-08-31 00:08:43 TG08 19.28°C
2026-08-31 00:08:27 EEPr 0.55% 1.0% 101% 2036411 4.34 V
2026-08-31 00:08:27 EEPr 0.55% 1.0% 101% 2036411 4.34 V
2026-08-31 00:07:14 Rhee 0.35% 2.0% 98% 14288 4.15 V
2026-08-31 00:07:14 Rhee 0.35% 2.0% 98% 14288 4.15 V
2026-08-31 00:07:09 Rhee 0.35% 2.0% 98% 14288 4.15 V
2026-08-31 00:07:09 Rhee 0.35% 2.0% 98% 14288 4.15 V
2026-08-31 00:02:26 7274 0.99% 3.9% 100% 2140952 4.11 V
2026-08-31 00:02:26 7274 0.99% 3.9% 100% 2140952 4.11 V
2026-08-31 00:02:26 7274 0.99% 3.9% 100% 2140952 4.11 V
2026-08-31 00:00:15 PMT2 1.06% 2.0% 101% 1532060 4.2 V
2026-08-31 00:00:15 PMT2 1.06% 2.0% 101% 1532060 4.2 V
2026-08-31 00:00:07 PMT2 1.06% 2.0% 101% 1532060 4.2 V
2026-08-31 00:00:06 PMT2 1.06% 2.0% 101% 1532060 4.2 V
2026-08-31 00:00:03 RF03 0.04% 0.0% 99% 922023 4.18 V
2026-08-31 00:00:02 RF03 0.04% 0.0% 99% 922023 4.18 V
2026-08-31 00:00:02 RF03 0.04% 0.0% 99% 922023 4.18 V
2026-08-30 23:59:57 RF03 0.04% 0.0% 99% 922023 4.18 V
2026-08-30 23:59:56 RF03 0.04% 0.0% 99% 922023 4.18 V
2026-08-30 23:59:56 RF03 0.04% 0.0% 99% 922023 4.18 V
2026-08-30 23:59:25 IIXF 1.55% 2.3% 101% 898887 4.31 V
2026-08-30 23:59:25 IIXF 1.55% 2.3% 101% 898887 4.31 V
2026-08-30 23:58:57 LRX1 0.96% 8.3% 101% 7925761 4.84 V
2026-08-30 23:58:55 LRX1 0.96% 8.3% 101% 7925761 4.84 V
2026-08-30 23:58:53 LRX1 0.96% 8.3% 101% 7925761 4.84 V
2026-08-30 23:58:53 LRX1 0.96% 8.3% 101% 7925761 4.84 V
2026-08-30 23:58:48 LRX1 1013.8 hPa 38.65% 21.59°C
2026-08-30 23:58:47 LRX1 1013.8 hPa 38.65% 21.59°C
2026-08-30 23:58:45 LRX1 1013.8 hPa 38.65% 21.59°C
2026-08-30 23:58:45 LRX1 1013.8 hPa 38.65% 21.59°C
2026-08-30 23:58:44 LRX1 1013.8 hPa 38.65% 21.59°C
2026-08-30 23:58:22 EN05 0.89% 8.0% 85% 210728 4.02 V
2026-08-30 23:58:12 IIXF 857.98 hPa 42.08% 14.46°C 152.56 Ohm
2026-08-30 23:58:11 IIXF 857.98 hPa 42.08% 14.46°C 152.56 Ohm
2026-08-30 23:57:58 ah02 70.97% 14.01°C
2026-08-30 23:57:56 ah02 70.97% 14.01°C
2026-08-30 23:57:56 ah02 70.97% 14.01°C
2026-08-30 23:57:34 ah02 0.04% 15.9% 58% 61 3.79 V
2026-08-30 23:57:34 ah02 0.04% 15.9% 58% 61 3.79 V
2026-08-30 23:57:31 ah02 0.04% 15.9% 58% 61 3.79 V
2026-08-30 23:57:31 ah02 0.04% 15.9% 58% 61 3.79 V
2026-08-30 23:56:32 PTRH 0.65% 0.0% 50% 1163741 3.72 V
2026-08-30 23:56:32 PTRH 0.65% 0.0% 50% 1163741 3.72 V
2026-08-30 23:56:25 PTRH 0.65% 0.0% 50% 1163741 3.72 V
2026-08-30 23:56:25 PTRH 0.65% 0.0% 50% 1163741 3.72 V
2026-08-30 23:56:08 ah03 696.34 hPa 69.48% 27.0°C
2026-08-30 23:56:08 ah03 696.34 hPa 69.48% 27.0°C
2026-08-30 23:56:06 ah03 696.34 hPa 69.48% 27.0°C
2026-08-30 23:56:04 ah03 696.34 hPa 69.48% 27.0°C
2026-08-30 23:55:13 EN11 0.29% 7.5% 101% 9970 4.08 V
2026-08-30 23:55:13 EN11 0.29% 7.5% 101% 9970 4.08 V
2026-08-30 23:54:42 EN11 0.29% 7.5% 101% 9970 4.08 V
2026-08-30 23:54:42 EN11 0.29% 7.5% 101% 9970 4.08 V
2026-08-30 23:54:07 PMT2 21.52°C
2026-08-30 23:54:06 PMT2 21.52°C
2026-08-30 23:52:48 ah03
2026-08-30 23:52:47 ah03
2026-08-30 23:52:46 ah03
2026-08-30 23:52:41 ah03
2026-08-30 23:52:39 ah03 0.88% 9.2% 73% 3630425 3.92 V
2026-08-30 23:52:39 ah03 0.88% 9.2% 73% 3630425 3.92 V
2026-08-30 23:52:34 ah03 0.88% 9.2% 73% 3630425 3.92 V
2026-08-30 23:51:30 J8ke
2026-08-30 23:51:29 J8ke
2026-08-30 23:51:28 J8ke
2026-08-30 23:50:34 DJMH 0.34% 0.0% 87% 16650964 4.03 V
2026-08-30 23:50:34 DJMH 0.34% 0.0% 87% 16650964 4.03 V
2026-08-30 23:50:34 DJMH 0.34% 0.0% 87% 16650964 4.03 V
2026-08-30 23:50:18 dc64 0.59% 4.1% 96% 1042812 4.14 V
2026-08-30 23:50:18 dc64 0.59% 4.1% 96% 1042812 4.14 V
2026-08-30 23:49:32 LMGB 0.28% 1.6% 101% 749721 -0.0 V
2026-08-30 23:49:32 LMGB 0.28% 1.6% 101% 749721 -0.0 V
2026-08-30 23:46:35 dc24 0.02% 2.1% 101% 61 4.16 V
2026-08-30 23:46:35 dc24 0.02% 2.1% 101% 61 4.16 V
2026-08-30 23:46:35 dc24 0.02% 2.1% 101% 61 4.16 V
2026-08-30 23:45:38 tge0 2.85% 11.5% 94% 9572438 4.11 V
2026-08-30 23:45:38 tge0 2.85% 11.5% 94% 9572438 4.11 V
2026-08-30 23:45:37 tge0 2.85% 11.5% 94% 9572438 4.11 V
2026-08-30 23:45:35 tge0 2.85% 11.5% 94% 9572438 4.11 V
2026-08-30 23:45:35 tge0 2.85% 11.5% 94% 9572438 4.11 V
2026-08-30 23:45:35 tge0 2.85% 11.5% 94% 9572438 4.11 V
2026-08-30 23:45:10 EN01 0.87% 0.0% 100% 372798 4.19 V
2026-08-30 23:45:10 EN01 0.87% 0.0% 100% 372798 4.19 V
2026-08-30 23:44:59 EEPa 0.12% 0.0% 100% 6562191 4.14 V
2026-08-30 23:44:59 EEPa 0.12% 0.0% 100% 6562191 4.14 V
2026-08-30 23:44:59 EEPa 854.09 hPa 42.67% 20.03°C
2026-08-30 23:44:01 dc24 0.04% 5.4% 101% 62 4.15 V
2026-08-30 23:44:01 dc24 0.04% 5.4% 101% 62 4.15 V
2026-08-30 23:44:01 dc24 0.04% 5.4% 101% 62 4.15 V
2026-08-30 23:43:40 LML2 0.26% 0.0% 100% 274393 4.14 V
2026-08-30 23:43:40 LML2 0.26% 0.0% 100% 274393 4.14 V
2026-08-30 23:43:07 Rhee 0.32% 2.1% 98% 12848 4.16 V
2026-08-30 23:43:06 Rhee 0.32% 2.1% 98% 12848 4.16 V
2026-08-30 23:41:25 IIXF 1.53% 2.3% 97% 897807 4.16 V
2026-08-30 23:41:25 IIXF 1.53% 2.3% 97% 897807 4.16 V
2026-08-30 23:39:49 IIXF 857.97 hPa 41.51% 14.64°C 155.53 Ohm
2026-08-30 23:39:49 IIXF 857.97 hPa 41.51% 14.64°C 155.53 Ohm
2026-08-30 23:39:28 EN06 0.08% 0.0% 87% 112113 4.03 V
2026-08-30 23:39:28 EN06 0.08% 0.0% 87% 112113 4.03 V
2026-08-30 23:39:19 EN06 0.08% 0.0% 87% 112113 4.03 V
2026-08-30 23:38:43 TG08 18.96°C
2026-08-30 23:38:42 TG08 3.39% 3.1% 87% 129730 4.02 V
2026-08-30 23:38:42 TG08 3.39% 3.1% 87% 129730 4.02 V
2026-08-30 23:38:21 EEPr 0.26% 3.4% 101% 2034605 4.34 V
2026-08-30 23:38:20 EEPr 0.26% 3.4% 101% 2034605 4.34 V
2026-08-30 23:38:18 DOS 0.86% 0.0% 100% 5586430 4.2 V
2026-08-30 23:38:16 DOS 0.86% 0.0% 100% 5586430 4.2 V
2026-08-30 23:38:16 DOS 0.86% 0.0% 100% 5586430 4.2 V
2026-08-30 23:38:12 DOS 0.86% 0.0% 100% 5586430 4.2 V
2026-08-30 23:38:12 DOS 0.86% 0.0% 100% 5586430 4.2 V
2026-08-30 23:38:08 dc24 0.04% 5.4% 101% 61 4.34 V
2026-08-30 23:38:07 dc24 0.04% 5.4% 101% 61 4.34 V
2026-08-30 23:36:22 XYZJ 0.94% 0.0% 38% 368173 3.62 V
2026-08-30 23:36:22 XYZJ 0.94% 0.0% 38% 368173 3.62 V
2026-08-30 23:36:21 XYZJ 0.94% 0.0% 38% 368173 3.62 V
2026-08-30 23:36:19 XYZJ 0.94% 0.0% 38% 368173 3.62 V
2026-08-30 23:36:19 XYZJ 0.94% 0.0% 38% 368173 3.62 V
2026-08-30 23:34:49 LRX1 0.9% 0.0% 101% 7924320 4.86 V
2026-08-30 23:34:48 LRX1 0.9% 0.0% 101% 7924320 4.86 V
2026-08-30 23:34:46 LRX1 0.9% 0.0% 101% 7924320 4.86 V
2026-08-30 23:34:45 LRX1 0.9% 0.0% 101% 7924320 4.86 V
2026-08-30 23:34:45 LRX1 0.9% 0.0% 101% 7924320 4.86 V
2026-08-30 23:31:11 TTBM 2.75% 1.2% 77% 47605 3.97 V
2026-08-30 23:31:11 TTBM 2.75% 1.2% 77% 47605 3.97 V
2026-08-30 23:30:15 PMT2 1.12% 3.0% 101% 1530259 4.2 V
2026-08-30 23:30:15 PMT2 1.12% 3.0% 101% 1530259 4.2 V
2026-08-30 23:30:06 PMT2 1.12% 3.0% 101% 1530259 4.2 V
2026-08-30 23:30:06 PMT2 1.12% 3.0% 101% 1530259 4.2 V
2026-08-30 23:29:59 RF03 0.1% 1.7% 99% 920222 4.19 V
2026-08-30 23:29:59 RF03 0.1% 1.7% 99% 920222 4.19 V
2026-08-30 23:29:59 RF03 0.1% 1.7% 99% 920222 4.19 V
2026-08-30 23:29:56 RF03 0.1% 1.7% 99% 920222 4.19 V
2026-08-30 23:29:55 RF03 0.1% 1.7% 99% 920222 4.19 V
2026-08-30 23:29:55 RF03 0.1% 1.7% 99% 920222 4.19 V
2026-08-30 23:29:44 3bb8 1.47% 3.2% 101% 2108269 5.06 V
2026-08-30 23:29:43 3bb8 1.47% 3.2% 101% 2108269 5.06 V
2026-08-30 23:28:46 ah01 1.14% 4.4% 96% 5922042 4.15 V
2026-08-30 23:28:46 ah01 1.14% 4.4% 96% 5922042 4.15 V
2026-08-30 23:28:46 ah01 1.14% 4.4% 96% 5922042 4.15 V
2026-08-30 23:28:28 EN05 0.89% 11.0% 85% 208927 4.02 V
2026-08-30 23:28:23 RF01 0.42% 1.9% 99% 1150504 4.18 V
2026-08-30 23:28:23 RF01 0.42% 1.9% 99% 1150504 4.18 V
2026-08-30 23:28:14 RF01 0.42% 1.9% 99% 1150504 4.18 V
2026-08-30 23:28:13 RF01 0.42% 1.9% 99% 1150504 4.18 V
2026-08-30 23:28:13 RF01 0.42% 1.9% 99% 1150504 4.18 V
2026-08-30 23:28:07 Jim1 0.68% 7.0% 86% 17004949 4.03 V
2026-08-30 23:28:06 Jim1 0.68% 7.0% 86% 17004949 4.03 V
2026-08-30 23:28:06 Jim1 0.68% 7.0% 86% 17004949 4.03 V
2026-08-30 23:26:26 7274 1.02% 3.3% 100% 2138792 4.11 V
2026-08-30 23:26:25 7274 1.02% 3.3% 100% 2138792 4.11 V
2026-08-30 23:26:25 7274 1.02% 3.3% 100% 2138792 4.11 V
2026-08-30 23:25:43 ah03 696.34 hPa 70.96% 27.0°C
2026-08-30 23:25:43 ah03 696.34 hPa 70.96% 27.0°C
2026-08-30 23:25:42 ah03 696.34 hPa 70.96% 27.0°C
2026-08-30 23:25:38 ah03 696.34 hPa 70.96% 27.0°C
2026-08-30 23:24:14 PMT2 21.63°C
2026-08-30 23:24:14 PMT2 21.63°C
2026-08-30 23:24:06 PMT2 21.63°C
2026-08-30 23:24:05 PMT2 21.63°C
2026-08-30 23:22:17 ah03
2026-08-30 23:22:15 ah03
2026-08-30 23:22:14 ah03 0.88% 10.7% 73% 3628589 3.93 V
2026-08-30 23:22:14 ah03 0.88% 10.7% 73% 3628589 3.93 V
2026-08-30 23:22:10 ah03
2026-08-30 23:22:07 ah03 0.88% 10.7% 73% 3628589 3.93 V
2026-08-30 23:20:25 IIXF 1.57% 5.0% 60% 896547 3.8 V
2026-08-30 23:20:25 IIXF 1.57% 5.0% 60% 896547 3.8 V
2026-08-30 23:19:11 Rhee 0.33% 5.8% 98% 11408 4.16 V
2026-08-30 23:19:09 Rhee 0.33% 5.8% 98% 11408 4.16 V
2026-08-30 23:19:09 Rhee 0.33% 5.8% 98% 11408 4.16 V
2026-08-30 23:18:49 IIXF 857.97 hPa 42.17% 14.46°C 142.0 Ohm
2026-08-30 23:18:49 IIXF 857.97 hPa 42.17% 14.46°C 142.0 Ohm
2026-08-30 23:14:25 PTRH 0.39% 1.1% 52% 1161221 3.74 V
2026-08-30 23:14:25 PTRH 0.39% 1.1% 52% 1161221 3.74 V
2026-08-30 23:13:32 LMGB 0.33% 2.2% 101% 747561 -0.0 V
2026-08-30 23:13:32 LMGB 0.33% 2.2% 101% 747561 -0.0 V
2026-08-30 23:10:47 LRX1 0.81% 1.6% 101% 7922880 4.85 V
2026-08-30 23:10:46 LRX1 0.81% 1.6% 101% 7922880 4.85 V
2026-08-30 23:10:46 LRX1 1014.37 hPa 39.08% 21.41°C
2026-08-30 23:10:43 LRX1 1014.37 hPa 39.08% 21.41°C
2026-08-30 23:10:43 LRX1 1014.37 hPa 39.08% 21.41°C
2026-08-30 23:10:41 LRX1 0.81% 1.6% 101% 7922880 4.85 V
2026-08-30 23:10:40 LRX1 1014.37 hPa 39.08% 21.41°C
2026-08-30 23:10:40 LRX1 1014.37 hPa 39.08% 21.41°C
2026-08-30 23:08:42 TG08 2.77% 1.1% 89% 127928 4.03 V
2026-08-30 23:08:42 TG08 18.67°C
2026-08-30 23:08:42 TG08 2.77% 1.1% 89% 127928 4.03 V
2026-08-30 23:08:15 EEPr 0.45% 0.0% 101% 2032799 4.34 V
2026-08-30 23:08:14 EEPr 0.45% 0.0% 101% 2032799 4.34 V
2026-08-30 23:07:40 LML2 0.29% 1.1% 100% 272233 4.14 V
2026-08-30 23:07:40 LML2 0.29% 1.1% 100% 272233 4.14 V
2026-08-30 23:03:53 htec 1.17% 12.4% 101% 1501 4.22 V
2026-08-30 23:03:51 htec 1.17% 12.4% 101% 1501 4.22 V
2026-08-30 23:03:45 htec 1.17% 12.4% 101% 1501 4.22 V
2026-08-30 23:03:45 htec 1.17% 12.4% 101% 1501 4.22 V
2026-08-30 23:03:36 2c98 0.03% 0.0% 101% 446637 4.16 V
2026-08-30 23:03:36 2c98 0.03% 0.0% 101% 446637 4.16 V
2026-08-30 23:03:34 5RC 4.1% 9.0% 93% 106566 4.1 V
2026-08-30 23:03:34 5RC 4.1% 9.0% 93% 106566 4.1 V
2026-08-30 23:03:33 5RC 1019.05 hPa 63.62% 18.23°C
2026-08-30 23:03:33 5RC 1019.05 hPa 63.62% 18.23°C
2026-08-30 23:03:33 5RC 1019.05 hPa 63.62% 18.23°C
2026-08-30 23:03:33 5RC 4.1% 9.0% 93% 106566 4.1 V
2026-08-30 23:03:33 5RC 1019.05 hPa 63.62% 18.23°C
2026-08-30 23:03:26 J8ke
2026-08-30 23:03:14 J8ke 0.38 V
2026-08-30 23:03:14 J8ke 0.38 V
2026-08-30 23:03:14 J8ke 0.38 V
2026-08-30 23:02:52 EEPa 854.22 hPa 43.02% 20.09°C
2026-08-30 23:02:52 EEPa 854.22 hPa 43.02% 20.09°C
2026-08-30 23:02:47 J8ke 0.8% 3.7% 101% 25627 5.09 V
2026-08-30 23:02:46 J8ke 0.8% 3.7% 101% 25627 5.09 V
2026-08-30 23:02:46 J8ke 0.8% 3.7% 101% 25627 5.09 V
2026-08-30 23:00:07 PMT2 1.12% 3.0% 101% 1528459 4.2 V
2026-08-30 23:00:06 PMT2 1.12% 3.0% 101% 1528459 4.2 V
2026-08-30 23:00:05 PMT2 1.12% 3.0% 101% 1528459 4.2 V
Visit MeshInfo-Lite on Github. Also visit the original MeshInfo by Kevin Elliott.